Decoded Metar for KTYR (TYLER in TX, USA) (IATA:TYR) | Meteo·Mobile Aviation Weather
aviador You're here:

KTYR Decoded Metar

TYLER in TX, USA
Report Time2018-12-11 07:53:00
UTC Time2018-12-11 08:51:06
Flight Rules vfr VFR
Wind180° at 04 kt
W.Decomp.*RWY 17: 4.0 kt HW 0.5 kt RCW
RWY 22: 2.9 kt HW 2.7 kt LCW
RWY 13: 2.7 kt HW 2.9 kt RCW
W.Rank180° ranks 1
Current wind is below 180° avg. (8.7)
Visibility9999 m
Phenomena:N/A
Clouds:N/A
Expected CloudBase > 800 ft AGL from Temp-Dew spread
CeilingNone
Temp01°C (ISA -13)
Dew Point-1°C (87% RH)
AAT-2.6°C
QNH1029 hPa
Density Alt-1,496 ft
Elevation541 ft
Report Wrong Elevation
Raw Report
KTYR 110753Z AUTO 18004KT 10SM CLR 01/M01 A3038 RMK AO2 SLP287
T00061006=

Extra information for KTYR:More info

Metar Taf Metar & Taf Last 4 Metars F.Rules Stats Wind Profile Meteogram Temp Stats Airport Information Weather charts Add Link Nearby VenuesMetar ALERT Operation Metar Decoded Social comments

AIRNAV info for KTYR